Time;durP1;ratioP1;P1;durP2;ratioP2;P2;SDS_P1;SDS_P2;PMS_P1;PMS_P2;Temp;Humidity;BMP_temperature;BMP_pressure;BME280_temperature;BME280_humidity;BME280_pressure;Samples;Min_cycle;Max_cycle;Signal;HPM_P1;HPM_P2
2022/05/12 04:03:06;;;;;;;0.97;0.97;;;18.90;85.70;;;;;;6169760;22;20435;-63
2022/05/12 04:05:32;;;;;;;3.37;1.30;;;18.80;86.10;;;;;;5032365;28;20909;-63
2022/05/12 04:07:58;;;;;;;1.57;1.47;;;18.70;86.40;;;;;;5034183;28;20210;-63
2022/05/12 04:10:25;;;;;;;1.57;1.47;;;18.70;86.90;;;;;;5034105;28;20170;-62
2022/05/12 04:12:52;;;;;;;0.73;0.73;;;18.70;87.00;;;;;;5033392;28;20411;-62
2022/05/12 04:15:21;;;;;;;1.27;1.20;;;18.70;87.00;;;;;;5034138;28;20415;-61
2022/05/12 04:17:59;;;;;;;2.83;1.17;;;18.70;87.10;;;;;;5015786;28;20429;-62
2022/05/12 04:20:27;;;;;;;1.37;1.27;;;18.70;87.60;;;;;;5033881;28;20455;-63
2022/05/12 04:22:53;;;;;;;0.90;0.90;;;18.80;88.00;;;;;;5033346;28;20432;-63
2022/05/12 04:25:19;;;;;;;7.53;1.37;;;18.70;88.10;;;;;;5033775;28;20416;-63
2022/05/12 04:27:45;;;;;;;1.00;1.00;;;18.80;88.40;;;;;;5033721;28;20860;-63
2022/05/12 04:30:13;;;;;;;1.40;1.30;;;18.80;88.80;;;;;;5033551;28;20412;-63
2022/05/12 04:32:40;;;;;;;1.53;1.43;;;18.90;89.20;;;;;;5032402;28;20992;-63
2022/05/12 04:35:13;;;;;;;0.80;0.80;;;19.00;89.20;;;;;;5032822;28;20493;-63
2022/05/12 04:37:53;;;;;;;1.13;1.00;;;19.20;89.20;;;;;;5033559;28;20411;-63
2022/05/12 04:40:21;;;;;;;2.50;1.50;;;19.40;89.00;;;;;;5015480;28;20536;-63
2022/05/12 04:42:51;;;;;;;1.30;1.20;;;19.60;88.60;;;;;;5032821;28;20474;-63
2022/05/12 04:45:18;;;;;;;1.23;1.17;;;19.90;88.00;;;;;;5033600;28;20461;-63
2022/05/12 04:47:45;;;;;;;1.47;1.37;;;20.00;87.40;;;;;;5032805;28;20510;-63
2022/05/12 04:50:16;;;;;;;1.97;1.30;;;20.10;87.10;;;;;;5033403;28;20479;-63
2022/05/12 04:52:43;;;;;;;1.80;1.70;;;20.10;87.10;;;;;;5033007;28;20405;-63
2022/05/12 04:55:10;;;;;;;1.47;1.20;;;20.20;87.30;;;;;;5015651;28;20764;-63
2022/05/12 04:57:44;;;;;;;1.60;1.50;;;20.30;87.30;;;;;;5032992;28;20421;-63
2022/05/12 05:00:17;;;;;;;1.53;1.40;;;20.30;88.10;;;;;;5032858;28;20404;-63
2022/05/12 05:02:43;;;;;;;1.30;1.20;;;20.40;89.10;;;;;;5014999;28;20406;-63
2022/05/12 05:05:10;;;;;;;1.57;1.47;;;20.50;87.60;;;;;;5031069;28;20452;-69
2022/05/12 05:07:36;;;;;;;1.30;1.20;;;20.60;88.70;;;;;;5030923;28;20194;-70
2022/05/12 05:10:03;;;;;;;2.30;1.33;;;20.70;87.60;;;;;;5031027;28;20562;-68
2022/05/12 05:12:28;;;;;;;1.90;1.80;;;20.70;87.70;;;;;;5030801;28;20405;-70
2022/05/12 05:14:54;;;;;;;3.63;1.70;;;20.80;87.80;;;;;;5032406;28;20404;-68
2022/05/12 05:17:20;;;;;;;1.43;1.33;;;21.00;88.10;;;;;;5035385;28;20801;-71
2022/05/12 05:19:45;;;;;;;1.40;1.30;;;21.10;87.30;;;;;;5036419;28;20202;-69
2022/05/12 05:22:11;;;;;;;1.43;1.33;;;21.30;87.70;;;;;;5036671;28;20170;-69
2022/05/12 05:24:37;;;;;;;1.30;1.20;;;21.40;87.80;;;;;;5036799;28;20255;-69
2022/05/12 05:27:03;;;;;;;1.97;1.63;;;21.40;87.20;;;;;;5036866;28;20566;-69
2022/05/12 05:29:28;;;;;;;1.10;1.10;;;21.40;87.00;;;;;;5037060;28;20440;-69
2022/05/12 05:31:54;;;;;;;1.90;1.57;;;21.40;87.20;;;;;;5036538;28;20428;-69
2022/05/12 05:34:20;;;;;;;1.10;1.10;;;21.50;87.60;;;;;;5036525;28;20192;-69
2022/05/12 05:36:45;;;;;;;1.40;1.30;;;21.60;87.50;;;;;;5037668;28;20174;-69
2022/05/12 05:39:23;;;;;;;5.67;4.23;;;21.80;86.90;;;;;;5037410;28;20170;-70
2022/05/12 05:41:50;;;;;;;1.70;1.60;;;22.00;87.60;;;;;;5036946;28;20317;-70
2022/05/12 05:44:16;;;;;;;1.87;1.77;;;22.20;86.70;;;;;;5036236;28;20458;-69
2022/05/12 05:46:42;;;;;;;1.70;1.60;;;22.10;86.90;;;;;;5036371;28;20822;-69
2022/05/12 05:49:07;;;;;;;2.33;1.57;;;22.00;86.00;;;;;;5036873;28;20163;-69
2022/05/12 05:54:17;;;;;;;0.90;0.90;;;21.70;85.50;;;;;;5036123;28;20214;-69
2022/05/12 05:56:43;;;;;;;2.67;1.33;;;21.60;86.20;;;;;;5036701;28;20393;-69
2022/05/12 05:59:09;;;;;;;1.33;1.23;;;21.70;86.00;;;;;;5036385;28;20182;-69
2022/05/12 06:01:35;;;;;;;1.47;1.37;;;21.60;85.80;;;;;;5036546;28;20582;-70
2022/05/12 06:04:00;;;;;;;1.40;1.30;;;21.60;85.20;;;;;;5035759;28;20664;-69
2022/05/12 06:06:26;;;;;;;1.47;1.40;;;21.50;86.50;;;;;;5036174;28;20174;-69
2022/05/12 06:08:52;;;;;;;1.40;1.30;;;21.50;86.60;;;;;;5036321;28;20261;-68
2022/05/12 06:11:18;;;;;;;2.23;1.60;;;21.50;86.60;;;;;;5036333;28;20172;-69
2022/05/12 06:13:47;;;;;;;1.17;1.10;;;21.60;86.30;;;;;;5035804;28;20419;-67
2022/05/12 06:16:14;;;;;;;1.10;1.10;;;21.70;86.20;;;;;;5018415;28;20423;-68
2022/05/12 06:18:41;;;;;;;0.93;0.93;;;21.80;86.50;;;;;;5036557;28;20468;-67
2022/05/12 06:21:09;;;;;;;1.03;1.03;;;21.80;86.10;;;;;;5018299;28;20933;-68
2022/05/12 06:23:35;;;;;;;1.00;1.00;;;21.80;86.20;;;;;;5015688;28;20534;-67
2022/05/12 06:26:01;;;;;;;1.40;1.40;;;21.90;86.10;;;;;;5015668;28;20500;-68
2022/05/12 06:28:28;;;;;;;1.97;1.67;;;21.90;86.70;;;;;;5016456;28;20562;-68
2022/05/12 06:30:53;;;;;;;0.90;0.90;;;21.90;87.00;;;;;;5016197;28;20389;-70
2022/05/12 06:33:20;;;;;;;1.37;1.27;;;21.80;88.10;;;;;;5015554;28;20494;-69
2022/05/12 06:35:47;;;;;;;1.63;1.50;;;21.90;87.40;;;;;;5020087;28;20181;-68
2022/05/12 06:38:13;;;;;;;1.77;1.23;;;22.00;88.30;;;;;;5035834;28;20432;-68
2022/05/12 06:40:39;;;;;;;1.17;1.17;;;22.10;87.80;;;;;;5035738;28;20547;-66
2022/05/12 06:43:07;;;;;;;1.00;1.00;;;22.20;86.70;;;;;;5035251;28;20462;-66
2022/05/12 06:45:33;;;;;;;1.17;1.03;;;22.30;87.00;;;;;;5035578;28;20384;-67
2022/05/12 06:47:58;;;;;;;1.60;1.50;;;22.40;86.50;;;;;;5035388;28;20513;-66
2022/05/12 06:50:27;;;;;;;0.87;0.87;;;22.60;87.20;;;;;;5035259;28;20579;-66
2022/05/12 06:52:56;;;;;;;2.07;1.90;;;22.60;85.70;;;;;;5034974;28;20182;-66
2022/05/12 06:55:22;;;;;;;1.00;0.90;;;22.50;85.40;;;;;;5035426;28;20419;-65
2022/05/12 06:57:48;;;;;;;1.17;1.07;;;22.50;86.40;;;;;;5035405;28;20727;-66
2022/05/12 07:00:16;;;;;;;1.03;1.03;;;22.50;87.00;;;;;;5034319;28;20485;-64
2022/05/12 07:02:44;;;;;;;0.90;0.90;;;22.50;86.50;;;;;;5033379;28;20590;-65
2022/05/12 07:05:11;;;;;;;1.17;1.00;;;22.50;86.20;;;;;;5034267;28;20472;-65
2022/05/12 07:07:37;;;;;;;0.97;0.87;;;22.50;86.80;;;;;;5034357;28;20563;-65
2022/05/12 07:10:04;;;;;;;0.77;0.77;;;22.30;86.60;;;;;;5034838;28;20488;-64
2022/05/12 07:12:30;;;;;;;0.90;0.90;;;22.10;86.30;;;;;;5034638;28;20208;-65
2022/05/12 07:14:56;;;;;;;0.80;0.80;;;21.90;87.30;;;;;;5035025;28;20415;-65
2022/05/12 07:17:22;;;;;;;1.43;1.20;;;21.80;87.60;;;;;;5035037;28;20312;-64
2022/05/12 07:19:49;;;;;;;1.63;1.27;;;21.80;88.40;;;;;;5034756;28;20186;-65
2022/05/12 07:27:44;;;;;;;1.10;1.10;;;21.60;89.10;;;;;;5034879;28;20458;-65
2022/05/12 07:30:11;;;;;;;0.90;0.90;;;21.40;89.50;;;;;;5034846;28;20407;-65
2022/05/12 07:32:37;;;;;;;2.03;1.13;;;21.30;89.10;;;;;;5034469;28;20174;-64
2022/05/12 07:35:05;;;;;;;1.50;1.40;;;21.30;89.80;;;;;;5034557;28;20413;-65
2022/05/12 07:37:30;;;;;;;1.07;1.07;;;21.30;89.80;;;;;;5033646;28;20897;-66
2022/05/12 07:39:56;;;;;;;0.87;0.83;;;21.30;89.60;;;;;;5034429;28;20431;-64
2022/05/12 07:42:22;;;;;;;0.70;0.70;;;21.30;89.50;;;;;;5034041;28;20304;-65
2022/05/12 07:44:47;;;;;;;2.10;2.00;;;21.20;89.50;;;;;;5034518;28;20248;-65
2022/05/12 07:47:13;;;;;;;0.90;0.90;;;21.20;90.30;;;;;;5034149;28;20220;-65
2022/05/12 07:49:40;;;;;;;1.63;1.10;;;21.30;90.50;;;;;;5034295;28;20544;-64
2022/05/12 07:52:08;;;;;;;0.90;0.90;;;21.30;90.10;;;;;;5034145;28;20210;-64
2022/05/12 07:54:35;;;;;;;1.13;1.13;;;21.30;90.20;;;;;;5033672;28;20809;-66
2022/05/12 07:57:01;;;;;;;1.40;1.30;;;21.40;90.40;;;;;;5034317;28;20422;-65
2022/05/12 07:59:31;;;;;;;0.80;0.80;;;21.40;90.30;;;;;;5034213;28;20386;-65
2022/05/12 08:02:00;;;;;;;1.20;1.10;;;21.40;90.20;;;;;;5034285;28;20440;-64
2022/05/12 08:04:27;;;;;;;1.10;1.10;;;21.60;90.50;;;;;;5033421;28;20457;-66
2022/05/12 08:06:53;;;;;;;1.53;0.90;;;21.80;90.80;;;;;;5034128;28;20810;-65
2022/05/12 08:09:18;;;;;;;1.10;1.10;;;22.00;90.60;;;;;;5033929;28;20484;-65
2022/05/12 08:11:45;;;;;;;1.33;1.20;;;22.20;90.80;;;;;;5034166;28;20442;-65
2022/05/12 08:14:11;;;;;;;1.50;1.40;;;22.40;90.00;;;;;;5033435;28;20285;-66
2022/05/12 08:16:37;;;;;;;1.30;1.20;;;22.70;89.70;;;;;;5033792;28;20558;-65
2022/05/12 08:19:04;;;;;;;1.43;1.33;;;23.10;88.30;;;;;;5034110;28;20417;-65
2022/05/12 08:21:29;;;;;;;4.17;2.37;;;24.00;87.40;;;;;;5033696;28;20423;-66
2022/05/12 08:23:55;;;;;;;1.90;1.80;;;24.70;85.40;;;;;;5032888;28;20441;-66
2022/05/12 08:26:22;;;;;;;1.40;1.30;;;25.40;83.20;;;;;;5033780;28;20178;-65
2022/05/12 08:28:50;;;;;;;2.17;1.77;;;25.80;82.20;;;;;;5033816;28;20194;-66
2022/05/12 08:31:21;;;;;;;1.57;1.47;;;26.20;78.70;;;;;;5033915;28;20435;-65
2022/05/12 08:33:47;;;;;;;1.50;1.40;;;26.30;78.70;;;;;;5032972;28;20513;-65
2022/05/12 08:36:13;;;;;;;1.50;1.40;;;26.50;77.80;;;;;;5033812;28;20420;-65
2022/05/12 08:38:40;;;;;;;4.87;1.57;;;26.60;77.70;;;;;;5033644;28;20920;-65
2022/05/12 08:41:09;;;;;;;1.83;1.40;;;26.60;77.10;;;;;;5033687;28;20723;-66
2022/05/12 08:43:45;;;;;;;1.50;1.40;;;26.60;76.40;;;;;;5033228;28;20462;-65
2022/05/12 08:46:17;;;;;;;1.80;1.70;;;27.00;78.10;;;;;;5033425;28;20437;-65
2022/05/12 08:48:44;;;;;;;1.60;1.50;;;27.30;75.10;;;;;;5032993;28;20441;-65
2022/05/12 08:51:20;;;;;;;1.30;1.30;;;28.00;74.30;;;;;;5033469;28;20401;-65
2022/05/12 08:54:05;;;;;;;2.40;2.17;;;29.10;71.90;;;;;;5032763;28;20417;-65
2022/05/12 08:56:32;;;;;;;2.90;1.70;;;29.70;67.40;;;;;;5033549;28;20405;-66
2022/05/12 08:59:00;;;;;;;1.83;1.73;;;29.50;68.60;;;;;;5033240;28;20408;-66
2022/05/12 09:01:50;;;;;;;1.80;1.70;;;29.70;67.20;;;;;;5033509;28;20807;-66
2022/05/12 09:04:47;;;;;;;2.00;1.90;;;30.10;67.00;;;;;;5032921;28;20467;-66
2022/05/12 09:07:29;;;;;;;2.90;2.70;;;30.60;66.00;;;;;;5033096;28;20456;-66
2022/05/12 09:10:21;;;;;;;4.10;2.20;;;31.00;64.90;;;;;;5033411;28;20820;-65
2022/05/12 09:12:50;;;;;;;2.40;2.20;;;31.10;61.70;;;;;;5033038;28;20766;-67
2022/05/12 09:15:27;;;;;;;2.00;1.90;;;31.20;63.00;;;;;;5033309;28;20969;-65
2022/05/12 09:18:15;;;;;;;14.63;2.63;;;31.70;61.10;;;;;;5033275;28;20427;-66
2022/05/12 09:20:41;;;;;;;2.03;1.93;;;32.50;60.40;;;;;;5032987;28;20415;-66
2022/05/12 09:23:06;;;;;;;2.30;2.20;;;33.20;59.20;;;;;;5032423;28;20420;-66
2022/05/12 09:25:36;;;;;;;4.20;2.50;;;33.90;58.50;;;;;;5033047;28;20185;-66
2022/05/12 09:28:28;;;;;;;2.00;1.90;;;34.80;57.10;;;;;;5033017;28;20500;-66
2022/05/12 09:31:20;;;;;;;3.23;2.90;;;35.40;55.30;;;;;;5020094;28;20771;-67
2022/05/12 09:33:48;;;;;;;2.40;2.30;;;35.20;55.10;;;;;;5031916;28;20819;-65
2022/05/12 09:36:23;;;;;;;2.50;2.40;;;34.90;55.60;;;;;;5033096;28;20425;-66
2022/05/12 09:38:54;;;;;;;2.43;2.30;;;34.70;55.40;;;;;;5032834;28;20420;-66
2022/05/12 09:41:22;;;;;;;2.80;2.60;;;34.40;55.60;;;;;;5032952;28;20899;-66
2022/05/12 09:43:53;;;;;;;2.87;2.67;;;34.00;55.40;;;;;;5032563;28;20432;-66
2022/05/12 09:46:23;;;;;;;2.70;2.53;;;33.20;56.10;;;;;;5032957;28;20900;-65
2022/05/12 09:48:50;;;;;;;2.90;2.70;;;32.30;57.00;;;;;;5032979;28;20870;-65
2022/05/12 09:51:24;;;;;;;2.47;2.27;;;31.40;58.40;;;;;;5032785;28;20770;-65
2022/05/12 09:53:53;;;;;;;2.40;2.30;;;30.80;59.60;;;;;;5032037;28;20462;-65
2022/05/12 09:56:34;;;;;;;2.97;1.80;;;30.40;60.20;;;;;;5033037;28;20444;-65
2022/05/12 09:59:08;;;;;;;2.73;1.63;;;29.60;61.90;;;;;;5032865;28;20396;-65
2022/05/12 10:01:47;;;;;;;2.53;2.33;;;28.90;64.70;;;;;;5034557;28;20415;-65
2022/05/12 10:10:02;;;;;;;2.60;1.90;;;28.20;66.70;;;;;;5036422;28;20429;-64
2022/05/12 10:12:37;;;;;;;2.73;2.10;;;27.80;68.60;;;;;;5036070;28;20793;-65
2022/05/12 10:15:27;;;;;;;2.47;2.10;;;27.50;68.70;;;;;;5036164;28;20777;-65
2022/05/12 10:18:01;;;;;;;2.10;2.00;;;27.50;68.70;;;;;;5034288;28;20422;-66
2022/05/12 10:20:29;;;;;;;4.30;2.27;;;27.90;71.10;;;;;;5036250;28;20776;-66
2022/05/12 10:22:58;;;;;;;2.50;2.30;;;28.70;69.50;;;;;;5035692;28;20794;-65
2022/05/12 10:25:39;;;;;;;3.87;2.53;;;29.20;67.20;;;;;;5035576;28;20403;-65
2022/05/12 10:28:14;;;;;;;4.13;2.30;;;29.90;66.00;;;;;;5035956;28;20456;-66
2022/05/12 10:31:34;;;;;;;2.43;2.23;;;30.70;63.40;;;;;;5035985;28;20447;-65
2022/05/12 10:34:23;;;;;;;2.10;1.90;;;31.40;61.40;;;;;;4935593;29;20871;-66
2022/05/12 10:37:19;;;;;;;2.60;2.40;;;32.20;59.10;;;;;;5012064;28;20418;-65
2022/05/12 10:39:50;;;;;;;2.27;2.17;;;32.50;57.60;;;;;;5016210;28;20409;-65
2022/05/12 10:42:28;;;;;;;5.50;2.30;;;32.30;58.40;;;;;;5015482;28;20406;-66
2022/05/12 10:45:03;;;;;;;3.07;2.40;;;32.30;59.00;;;;;;5021541;28;20415;-65
2022/05/12 10:48:08;;;;;;;2.83;2.63;;;32.50;59.40;;;;;;5035555;28;20542;-66
2022/05/12 10:50:44;;;;;;;1.90;1.80;;;32.30;58.40;;;;;;4995956;28;20431;-65
2022/05/12 10:53:24;;;;;;;2.67;2.50;;;31.60;58.70;;;;;;5017294;28;20441;-66
2022/05/12 10:56:21;;;;;;;3.07;2.43;;;31.20;59.90;;;;;;5017645;28;20428;-66
2022/05/12 10:59:10;;;;;;;2.20;2.00;;;30.50;60.70;;;;;;5035309;28;20420;-67
2022/05/12 11:01:49;;;;;;;5.17;2.57;;;29.80;63.00;;;;;;5034786;28;20421;-65
2022/05/12 11:04:19;;;;;;;2.63;2.43;;;29.80;63.40;;;;;;5034449;28;20419;-65
2022/05/12 11:07:24;;;;;;;2.53;2.33;;;29.70;63.20;;;;;;5035524;28;20871;-65
2022/05/12 11:10:22;;;;;;;2.73;2.53;;;29.10;64.80;;;;;;5034515;28;20757;-65
2022/05/12 11:12:52;;;;;;;2.53;2.33;;;28.60;66.30;;;;;;5034601;28;20471;-65
2022/05/12 11:15:28;;;;;;;2.63;2.43;;;28.20;68.50;;;;;;5034526;28;20392;-65
2022/05/12 11:18:00;;;;;;;2.50;2.40;;;27.70;67.50;;;;;;5035055;28;20385;-65
2022/05/12 11:20:36;;;;;;;2.77;2.57;;;27.40;69.10;;;;;;5035067;28;20409;-65
2022/05/12 11:23:12;;;;;;;3.60;2.80;;;27.30;72.40;;;;;;5034521;28;20774;-65
2022/05/12 11:25:55;;;;;;;3.03;2.83;;;27.30;71.30;;;;;;5035034;28;20793;-64
2022/05/12 11:31:42;;;;;;;2.33;2.07;;;27.10;70.60;;;;;;5034893;28;20394;-65
2022/05/12 11:34:14;;;;;;;1.93;1.83;;;26.90;70.30;;;;;;5016832;28;20447;-66
2022/05/12 11:36:43;;;;;;;2.40;2.20;;;26.60;70.50;;;;;;5034786;28;20470;-64
2022/05/12 11:39:48;;;;;;;2.37;2.27;;;26.60;71.90;;;;;;5034380;28;20401;-64
2022/05/12 11:42:21;;;;;;;3.90;3.60;;;26.70;73.10;;;;;;5034105;28;20394;-66
2022/05/12 11:45:05;;;;;;;3.33;2.43;;;26.70;71.20;;;;;;5034599;28;20422;-65
2022/05/12 11:47:58;;;;;;;2.53;2.33;;;26.60;71.60;;;;;;5016626;28;20458;-67
2022/05/12 11:50:33;;;;;;;3.30;2.63;;;26.50;71.70;;;;;;5034650;28;20416;-66
2022/05/12 11:53:20;;;;;;;2.47;2.27;;;26.50;71.40;;;;;;5033468;28;20441;-66
2022/05/12 11:56:03;;;;;;;2.70;2.50;;;26.60;72.80;;;;;;5034530;28;20412;-66
2022/05/12 11:58:40;;;;;;;2.37;2.27;;;26.60;72.30;;;;;;5034464;28;20407;-65
2022/05/12 12:01:34;;;;;;;2.63;2.43;;;26.80;73.00;;;;;;5034450;28;20383;-66
2022/05/12 12:04:03;;;;;;;2.00;1.90;;;26.90;72.40;;;;;;5033535;28;20451;-66
2022/05/12 12:06:45;;;;;;;4.63;3.10;;;27.00;71.70;;;;;;5034091;28;20431;-66
2022/05/12 12:09:33;;;;;;;2.23;2.13;;;27.10;72.00;;;;;;5034366;28;20429;-66
2022/05/12 12:12:02;;;;;;;2.20;1.90;;;27.10;69.90;;;;;;5034275;28;20894;-66
2022/05/12 12:14:43;;;;;;;2.47;2.27;;;27.10;69.30;;;;;;5033696;28;20399;-66
2022/05/12 12:17:32;;;;;;;2.47;2.27;;;27.20;70.20;;;;;;5034075;28;20417;-67
2022/05/12 12:20:19;;;;;;;2.07;1.93;;;27.30;70.50;;;;;;5033681;28;20806;-64
2022/05/12 12:22:52;;;;;;;4.00;3.70;;;27.50;73.80;;;;;;5030102;28;20927;-65
2022/05/12 12:25:40;;;;;;;2.57;2.37;;;27.70;69.90;;;;;;5033205;28;20473;-66
2022/05/12 12:28:32;;;;;;;4.30;2.53;;;27.70;68.30;;;;;;5033901;28;20467;-65
2022/05/12 12:31:08;;;;;;;2.60;2.40;;;27.80;70.80;;;;;;5033780;28;20384;-65
2022/05/12 12:33:41;;;;;;;3.17;2.87;;;27.90;69.90;;;;;;5032789;28;20488;-65
2022/05/12 12:36:29;;;;;;;3.10;2.87;;;27.80;67.80;;;;;;5033799;28;20408;-66
2022/05/12 12:38:55;;;;;;;2.20;2.00;;;27.50;71.00;;;;;;5033459;28;20390;-66
2022/05/12 12:41:29;;;;;;;3.23;2.73;;;27.50;70.80;;;;;;5033409;28;20427;-66
2022/05/12 12:44:00;;;;;;;2.37;2.27;;;27.30;70.00;;;;;;5033028;28;20193;-66
2022/05/12 12:46:28;;;;;;;5.10;2.77;;;27.10;69.90;;;;;;5033620;28;20402;-65
2022/05/12 12:49:16;;;;;;;3.10;2.90;;;26.90;70.50;;;;;;5033197;28;20495;-65
2022/05/12 12:51:42;;;;;;;2.50;2.40;;;26.80;71.50;;;;;;4983506;28;20418;-65
2022/05/12 12:57:18;;;;;;;2.70;2.50;;;26.80;73.60;;;;;;5033609;28;20234;-66
2022/05/12 12:59:54;;;;;;;2.50;2.30;;;26.60;71.70;;;;;;5033128;28;20466;-66
2022/05/12 13:02:33;;;;;;;2.50;2.30;;;26.50;73.00;;;;;;5033005;28;20387;-66
2022/05/12 13:05:07;;;;;;;3.37;2.47;;;26.40;73.30;;;;;;5033003;28;20460;-66
2022/05/12 13:07:35;;;;;;;1.90;1.80;;;26.40;72.90;;;;;;5033384;28;20827;-66
2022/05/12 13:10:06;;;;;;;2.40;2.30;;;26.30;73.20;;;;;;5033239;28;20403;-64
2022/05/12 13:12:32;;;;;;;2.10;1.90;;;26.10;74.20;;;;;;5032984;28;20401;-66
2022/05/12 13:15:00;;;;;;;3.57;2.13;;;25.90;74.50;;;;;;5033117;28;20992;-64
2022/05/12 13:17:36;;;;;;;2.30;2.10;;;25.80;74.00;;;;;;5032979;28;20408;-65
2022/05/12 13:20:04;;;;;;;3.00;2.57;;;25.70;74.80;;;;;;5033305;28;20455;-65
2022/05/12 13:22:46;;;;;;;5.50;2.50;;;25.50;76.00;;;;;;5032801;28;20780;-66
2022/05/12 13:25:20;;;;;;;3.37;2.87;;;25.30;75.80;;;;;;5033113;28;20528;-65
2022/05/12 13:27:46;;;;;;;6.60;2.93;;;25.10;76.20;;;;;;5032709;28;20499;-65
2022/05/12 13:30:16;;;;;;;4.73;1.90;;;25.20;77.80;;;;;;5032696;28;20421;-64
2022/05/12 13:32:55;;;;;;;2.40;2.20;;;25.10;75.50;;;;;;5032767;28;20417;-65
2022/05/12 13:35:26;;;;;;;2.97;2.73;;;25.00;75.70;;;;;;5033021;28;20395;-66
2022/05/12 13:38:01;;;;;;;2.40;2.30;;;25.00;78.00;;;;;;5036594;28;20416;-63
2022/05/12 13:40:45;;;;;;;5.37;2.90;;;25.10;77.90;;;;;;5036781;28;20766;-65
2022/05/12 13:43:51;;;;;;;3.17;2.87;;;25.30;76.40;;;;;;5018724;28;20475;-66
2022/05/12 13:46:17;;;;;;;2.73;2.53;;;25.30;76.20;;;;;;5036103;28;20403;-64
2022/05/12 13:49:00;;;;;;;2.60;2.17;;;25.20;77.40;;;;;;5036439;28;20460;-65
2022/05/12 13:51:47;;;;;;;2.53;2.33;;;25.10;77.40;;;;;;5036727;28;20221;-65
2022/05/12 13:54:24;;;;;;;2.80;2.53;;;25.10;79.50;;;;;;5036258;28;20487;-65
2022/05/12 13:56:50;;;;;;;2.23;2.13;;;25.30;78.90;;;;;;5035976;28;20391;-64
2022/05/12 13:59:22;;;;;;;2.80;2.60;;;25.20;78.10;;;;;;5037660;28;20390;-64
2022/05/12 14:01:49;;;;;;;3.20;2.30;;;25.20;77.90;;;;;;5045877;28;20170;-65
2022/05/12 14:04:27;;;;;;;3.60;3.30;;;25.10;78.80;;;;;;5041399;28;20464;-65
2022/05/12 14:06:58;;;;;;;3.00;2.67;;;25.20;79.90;;;;;;5036697;28;20465;-66
2022/05/12 14:09:26;;;;;;;2.90;2.70;;;25.30;78.90;;;;;;5036073;28;20401;-65
2022/05/12 14:12:10;;;;;;;3.27;2.23;;;25.40;78.40;;;;;;5035948;28;20429;-65
2022/05/12 14:20:17;;;;;;;4.53;3.20;;;25.60;77.70;;;;;;5036094;28;20379;-64
2022/05/12 14:22:43;;;;;;;2.10;2.00;;;25.60;78.10;;;;;;5035595;28;20388;-65
2022/05/12 14:25:10;;;;;;;3.33;2.70;;;25.60;78.00;;;;;;5035589;28;21000;-65
2022/05/12 14:27:36;;;;;;;2.53;2.33;;;25.70;78.90;;;;;;5035773;28;20293;-65
2022/05/12 14:30:03;;;;;;;2.20;2.00;;;25.80;79.90;;;;;;5018085;28;20527;-65
2022/05/12 14:32:39;;;;;;;2.90;2.30;;;25.80;78.00;;;;;;5035252;28;20171;-66
2022/05/12 14:35:06;;;;;;;1.80;1.70;;;25.80;77.60;;;;;;5035588;28;20410;-65
2022/05/12 14:37:32;;;;;;;2.30;2.10;;;25.70;77.30;;;;;;5035650;28;20420;-66
2022/05/12 14:39:59;;;;;;;2.23;2.13;;;25.80;78.60;;;;;;5017689;28;20417;-65
2022/05/12 14:42:25;;;;;;;3.20;2.60;;;25.70;78.00;;;;;;5035447;28;20544;-67
2022/05/12 14:44:50;;;;;;;2.40;2.20;;;25.80;78.70;;;;;;5035441;28;20400;-65
2022/05/12 14:47:23;;;;;;;2.40;2.30;;;25.90;78.40;;;;;;5035201;28;20468;-66
2022/05/12 14:49:49;;;;;;;2.60;2.40;;;26.00;78.70;;;;;;5035577;28;20167;-65
2022/05/12 14:52:26;;;;;;;3.20;2.97;;;26.00;78.30;;;;;;5035186;28;20806;-68
2022/05/12 14:54:53;;;;;;;2.70;2.50;;;26.00;77.50;;;;;;5035092;28;20781;-66
2022/05/12 14:57:20;;;;;;;2.97;2.67;;;26.00;76.30;;;;;;5035528;28;20774;-65
2022/05/12 14:59:46;;;;;;;2.47;2.13;;;25.90;78.30;;;;;;5035585;28;20422;-66
2022/05/12 15:02:19;;;;;;;2.13;2.03;;;25.80;77.80;;;;;;5035100;28;20451;-66
2022/05/12 15:04:46;;;;;;;3.23;2.27;;;25.60;77.00;;;;;;5035058;28;20534;-67
2022/05/12 15:07:12;;;;;;;3.53;2.27;;;25.70;78.20;;;;;;5034548;28;20470;-67
2022/05/12 15:09:42;;;;;;;2.00;1.90;;;25.60;77.70;;;;;;5034949;28;20384;-63
2022/05/12 15:12:11;;;;;;;2.60;2.40;;;25.60;78.00;;;;;;5035068;28;20520;-63
2022/05/12 15:14:38;;;;;;;4.80;2.43;;;25.60;78.80;;;;;;5035021;28;20433;-63
2022/05/12 15:17:06;;;;;;;2.70;2.50;;;25.40;79.00;;;;;;5035012;28;20396;-65
2022/05/12 15:19:33;;;;;;;4.97;4.07;;;25.30;78.70;;;;;;5035097;28;20409;-67
2022/05/12 15:22:01;;;;;;;2.70;2.50;;;25.30;79.40;;;;;;5034760;28;20462;-66
2022/05/12 15:24:31;;;;;;;5.17;3.50;;;25.30;79.50;;;;;;5016693;28;20444;-67
2022/05/12 15:26:59;;;;;;;2.20;2.00;;;25.20;80.80;;;;;;5034932;28;20503;-66
2022/05/12 15:29:25;;;;;;;2.17;2.07;;;25.10;80.80;;;;;;5033975;28;20769;-70
2022/05/12 15:31:50;;;;;;;2.60;2.43;;;25.00;80.60;;;;;;5033128;28;20415;-63
2022/05/12 15:34:16;;;;;;;2.20;2.10;;;24.90;81.30;;;;;;5033107;28;20190;-64
2022/05/12 15:36:45;;;;;;;2.67;2.47;;;24.80;81.60;;;;;;5033529;28;20248;-61
2022/05/12 15:39:15;;;;;;;2.60;2.33;;;24.80;81.90;;;;;;5033380;28;20189;-66
2022/05/12 15:41:45;;;;;;;5.07;3.90;;;24.70;82.00;;;;;;5033140;28;20491;-64
2022/05/12 15:44:12;;;;;;;3.03;2.83;;;24.60;81.60;;;;;;5032380;28;20441;-62
2022/05/12 15:46:41;;;;;;;3.03;1.87;;;24.60;82.10;;;;;;5015505;28;20396;-63
2022/05/12 15:49:17;;;;;;;2.50;2.30;;;24.50;82.40;;;;;;5033041;28;20491;-65
2022/05/12 15:51:43;;;;;;;2.50;2.30;;;24.50;82.80;;;;;;5015331;28;20392;-64
2022/05/12 15:54:08;;;;;;;2.40;2.27;;;24.30;82.40;;;;;;5032625;28;20406;-67
2022/05/12 15:56:34;;;;;;;2.30;2.20;;;24.30;83.10;;;;;;5032534;28;20417;-63
2022/05/12 15:59:00;;;;;;;2.77;2.50;;;24.20;83.40;;;;;;5031573;28;20185;-64
2022/05/12 16:01:25;;;;;;;3.33;2.80;;;24.00;83.30;;;;;;5032879;28;20636;-61
2022/05/12 16:03:51;;;;;;;3.40;2.53;;;23.90;83.80;;;;;;5032268;28;20281;-61
2022/05/12 16:06:17;;;;;;;2.10;1.97;;;23.70;84.30;;;;;;5032751;28;20174;-61
2022/05/12 16:08:43;;;;;;;2.30;2.20;;;23.60;85.20;;;;;;5032345;28;20246;-61
2022/05/12 16:11:10;;;;;;;4.70;3.00;;;23.50;86.20;;;;;;5032533;28;20411;-61
2022/05/12 16:13:38;;;;;;;3.10;2.80;;;23.40;86.30;;;;;;5032315;28;20840;-61
2022/05/12 16:16:05;;;;;;;3.40;2.70;;;23.30;87.20;;;;;;5032647;28;20416;-64
2022/05/12 16:18:31;;;;;;;2.47;2.27;;;23.30;88.00;;;;;;5032544;28;20783;-64
2022/05/12 16:20:57;;;;;;;2.93;2.73;;;23.20;88.20;;;;;;5032983;28;20419;-64
2022/05/12 16:23:22;;;;;;;3.23;2.93;;;23.10;88.40;;;;;;5031666;28;20654;-62
2022/05/12 16:25:57;;;;;;;3.03;2.83;;;23.00;88.70;;;;;;5032763;28;20223;-66
2022/05/12 16:28:29;;;;;;;3.20;2.53;;;22.90;90.00;;;;;;5032185;28;20249;-65
2022/05/12 16:30:55;;;;;;;2.87;2.67;;;22.70;90.10;;;;;;5032386;28;20457;-66
2022/05/12 16:33:21;;;;;;;3.00;2.80;;;22.60;90.40;;;;;;5031633;28;21227;-66
2022/05/12 16:35:47;;;;;;;2.70;2.50;;;22.40;91.10;;;;;;5031918;28;20174;-66
2022/05/12 16:38:14;;;;;;;3.43;3.13;;;22.30;91.80;;;;;;5032594;28;20545;-65
2022/05/12 16:40:40;;;;;;;5.07;3.70;;;22.10;93.30;;;;;;5032373;28;20447;-64
2022/05/12 16:43:06;;;;;;;4.00;2.70;;;21.70;94.90;;;;;;5031706;28;20405;-66
2022/05/12 16:45:32;;;;;;;2.43;2.23;;;21.30;97.30;;;;;;5032009;28;20479;-66
2022/05/12 16:48:10;;;;;;;9.73;3.00;;;20.50;98.00;;;;;;5031523;28;20460;-65
2022/05/12 16:50:42;;;;;;;6.17;2.50;;;19.70;99.40;;;;;;5032363;28;20408;-65
2022/05/12 16:53:08;;;;;;;3.67;2.83;;;19.00;99.90;;;;;;5031689;28;20407;-65
2022/05/12 16:55:33;;;;;;;3.70;3.40;;;18.50;99.90;;;;;;5032279;28;20487;-65
2022/05/12 16:57:59;;;;;;;4.07;3.67;;;18.00;99.90;;;;;;5031879;28;20186;-65
2022/05/12 17:00:28;;;;;;;3.87;3.57;;;17.70;99.90;;;;;;5032074;28;20267;-65
2022/05/12 17:02:54;;;;;;;2.83;2.63;;;17.50;99.90;;;;;;5031175;28;20421;-67
2022/05/12 17:05:20;;;;;;;3.07;2.73;;;17.30;99.90;;;;;;5031848;28;20433;-66
2022/05/12 17:07:45;;;;;;;2.80;2.60;;;17.20;99.90;;;;;;5031996;28;20441;-65
2022/05/12 17:10:11;;;;;;;4.80;3.37;;;17.10;99.90;;;;;;5034918;28;20175;-65
2022/05/12 17:12:37;;;;;;;3.20;2.97;;;17.10;99.90;;;;;;5038138;28;20204;-66
2022/05/12 17:15:04;;;;;;;3.80;3.33;;;17.10;99.90;;;;;;5037742;28;20471;-66
2022/05/12 17:17:32;;;;;;;3.87;3.57;;;17.10;99.90;;;;;;5038866;28;20443;-63
2022/05/12 17:19:58;;;;;;;8.33;4.33;;;17.10;99.90;;;;;;5038711;28;20504;-63
2022/05/12 17:22:25;;;;;;;4.40;3.97;;;17.10;99.90;;;;;;5004184;28;20515;-62
2022/05/12 17:24:51;;;;;;;3.77;3.47;;;17.10;99.90;;;;;;5038548;28;20536;-62
2022/05/12 17:27:17;;;;;;;8.77;6.07;;;17.10;99.90;;;;;;5037520;28;20897;-65
2022/05/12 17:29:43;;;;;;;4.87;4.40;;;17.10;99.90;;;;;;5038388;28;20172;-68
2022/05/12 17:32:10;;;;;;;4.87;4.43;;;17.10;99.90;;;;;;5038268;28;20818;-68
2022/05/12 17:34:36;;;;;;;4.77;4.37;;;17.20;99.90;;;;;;5037936;28;20437;-69
2022/05/12 17:37:03;;;;;;;4.40;3.93;;;17.20;99.90;;;;;;5038326;28;20682;-72